Time;durP1;ratioP1;P1;durP2;ratioP2;P2;SDS_P1;SDS_P2;PMS_P1;PMS_P2;Temp;Humidity;BMP_temperature;BMP_pressure;BME280_temperature;BME280_humidity;BME280_pressure;Samples;Min_cycle;Max_cycle;Signal;HPM_P1;HPM_P2
2022/05/24 00:00:00;;;;;;;1.07;0.90;;;17.00;99.90;;;;;;5014103;28;20434;-75
2022/05/24 00:02:26;;;;;;;1.20;0.80;;;16.90;99.90;;;;;;5013465;28;20871;-75
2022/05/24 00:04:51;;;;;;;2.80;1.10;;;16.80;99.90;;;;;;5014155;28;20488;-74
2022/05/24 00:07:16;;;;;;;0.90;0.80;;;16.80;99.90;;;;;;5013641;28;20229;-75
2022/05/24 00:09:42;;;;;;;3.13;1.10;;;16.70;99.90;;;;;;5013876;28;20248;-75
2022/05/24 00:12:08;;;;;;;0.90;0.90;;;16.60;99.90;;;;;;5013120;28;20543;-75
2022/05/24 00:17:18;;;;;;;3.07;1.30;;;16.60;99.90;;;;;;5013251;28;20464;-73
2022/05/24 00:19:43;;;;;;;1.73;1.63;;;16.60;99.90;;;;;;5013766;28;20433;-74
2022/05/24 00:22:09;;;;;;;1.87;1.40;;;16.50;99.90;;;;;;5012973;28;20238;-75
2022/05/24 00:24:34;;;;;;;3.37;1.10;;;16.50;99.90;;;;;;5013150;28;20187;-74
2022/05/24 00:27:00;;;;;;;1.40;1.30;;;16.40;99.90;;;;;;5013330;28;20182;-75
2022/05/24 00:29:26;;;;;;;1.73;1.60;;;16.40;99.90;;;;;;5013094;28;20273;-75
2022/05/24 00:31:52;;;;;;;2.47;1.70;;;16.30;99.90;;;;;;5012779;28;20627;-74
2022/05/24 00:34:18;;;;;;;1.47;1.37;;;16.20;99.90;;;;;;5013005;28;20182;-74
2022/05/24 00:36:43;;;;;;;2.73;2.53;;;16.10;99.90;;;;;;5013560;28;20777;-74
2022/05/24 00:39:09;;;;;;;2.80;1.53;;;16.00;99.90;;;;;;5013121;28;20179;-73
2022/05/24 00:41:44;;;;;;;4.50;1.70;;;16.00;99.90;;;;;;5011323;28;20218;-74
2022/05/24 00:44:26;;;;;;;1.90;1.40;;;15.90;99.90;;;;;;5012891;28;20272;-75
2022/05/24 00:47:07;;;;;;;1.90;1.80;;;15.90;99.90;;;;;;5013411;28;20490;-75
2022/05/24 00:49:37;;;;;;;4.73;1.80;;;15.90;99.90;;;;;;5013986;28;20417;-75
2022/05/24 00:52:28;;;;;;;2.73;1.80;;;15.80;99.90;;;;;;5012413;28;20528;-74
2022/05/24 00:54:55;;;;;;;3.00;1.70;;;15.70;99.90;;;;;;5011372;28;20442;-75
2022/05/24 00:57:32;;;;;;;1.60;1.50;;;15.70;99.90;;;;;;5012696;28;20450;-74
2022/05/24 02:30:55;;;;;;;1.30;1.20;;;14.90;99.90;;;;;;6031454;23;20456;-76
2022/05/24 02:33:23;;;;;;;3.93;1.23;;;14.90;99.90;;;;;;4975456;28;20436;-76
2022/05/24 02:35:49;;;;;;;1.40;1.30;;;14.80;99.90;;;;;;4990154;28;20422;-74
2022/05/24 02:38:15;;;;;;;2.80;1.50;;;14.80;99.90;;;;;;4986351;28;20792;-74
2022/05/24 02:43:24;;;;;;;3.73;1.67;;;14.80;99.90;;;;;;4995024;28;20201;-74
2022/05/24 02:45:50;;;;;;;2.53;1.70;;;14.70;99.90;;;;;;4995503;28;20418;-74
2022/05/24 02:48:15;;;;;;;1.30;1.20;;;14.70;99.90;;;;;;4995634;28;20187;-74
2022/05/24 02:50:41;;;;;;;1.50;1.40;;;14.60;99.90;;;;;;4994836;28;20191;-75
2022/05/24 02:53:06;;;;;;;1.13;1.03;;;14.60;99.90;;;;;;4983525;28;20628;-75
2022/05/24 02:55:32;;;;;;;1.63;1.53;;;14.60;99.90;;;;;;4975879;28;20218;-74
2022/05/24 02:57:58;;;;;;;1.47;1.30;;;14.70;99.90;;;;;;4975756;28;20203;-74
2022/05/24 03:00:25;;;;;;;1.87;1.77;;;14.70;99.90;;;;;;4975481;28;20180;-71
2022/05/24 03:02:52;;;;;;;1.83;1.60;;;14.70;99.90;;;;;;4984251;28;20230;-75
2022/05/24 03:05:18;;;;;;;2.83;1.33;;;14.70;99.90;;;;;;4995123;28;20509;-75
2022/05/24 03:10:29;;;;;;;1.20;1.20;;;14.70;99.90;;;;;;4995047;28;20699;-74
2022/05/24 03:15:40;;;;;;;5.13;1.50;;;14.70;99.90;;;;;;4975651;28;20638;-73
2022/05/24 03:18:07;;;;;;;1.20;1.20;;;14.70;99.90;;;;;;4976146;28;20411;-74
2022/05/24 03:20:33;;;;;;;1.70;1.60;;;14.70;99.90;;;;;;4975547;28;20411;-72
2022/05/24 03:22:59;;;;;;;1.40;1.30;;;14.70;99.90;;;;;;4985048;28;20851;-75
2022/05/24 03:25:24;;;;;;;1.70;1.60;;;14.70;99.90;;;;;;4993831;28;20415;-74
2022/05/24 03:27:50;;;;;;;1.60;1.50;;;14.70;99.90;;;;;;4994737;28;20183;-75
2022/05/24 03:30:16;;;;;;;1.77;1.67;;;14.70;99.90;;;;;;4994594;28;20233;-74
2022/05/24 03:32:42;;;;;;;4.00;1.80;;;14.70;99.90;;;;;;4986902;28;20298;-75
2022/05/24 03:35:11;;;;;;;7.77;2.10;;;14.60;99.90;;;;;;4975095;28;20514;-74
2022/05/24 03:37:37;;;;;;;10.93;1.83;;;14.70;99.90;;;;;;4975069;28;20261;-75
2022/05/24 03:40:04;;;;;;;1.73;1.63;;;14.70;99.90;;;;;;4974807;28;20452;-75
2022/05/24 03:42:30;;;;;;;2.00;1.90;;;14.70;99.90;;;;;;4979676;28;20464;-75
2022/05/24 03:44:55;;;;;;;2.03;1.93;;;14.70;99.90;;;;;;4981417;28;20431;-74
2022/05/24 03:47:21;;;;;;;2.20;2.00;;;14.70;99.90;;;;;;4974249;28;20184;-74
2022/05/24 03:49:46;;;;;;;2.10;1.90;;;14.70;99.90;;;;;;4974566;28;20557;-74
2022/05/24 03:52:12;;;;;;;1.70;1.60;;;14.80;99.90;;;;;;4977388;28;20254;-76
2022/05/24 03:54:37;;;;;;;1.60;1.50;;;14.80;99.90;;;;;;4995052;28;20179;-76
2022/05/24 03:59:47;;;;;;;1.53;1.43;;;14.80;99.90;;;;;;4994636;28;20655;-74
2022/05/24 04:02:13;;;;;;;1.40;1.30;;;14.80;99.90;;;;;;4991081;28;20454;-75
2022/05/24 04:04:38;;;;;;;2.30;2.10;;;14.80;99.90;;;;;;4974869;28;20178;-72
2022/05/24 04:07:04;;;;;;;2.03;1.90;;;14.90;99.90;;;;;;4974464;28;20216;-72
2022/05/24 04:09:32;;;;;;;1.80;1.70;;;14.90;99.90;;;;;;4974390;28;20179;-70
2022/05/24 04:11:58;;;;;;;2.07;1.93;;;14.90;99.90;;;;;;4973867;28;20684;-72
2022/05/24 04:14:23;;;;;;;2.47;2.37;;;15.00;99.90;;;;;;4974701;28;20426;-71
2022/05/24 04:16:49;;;;;;;2.67;2.57;;;15.00;99.90;;;;;;4974520;28;20620;-72
2022/05/24 04:19:15;;;;;;;1.77;1.67;;;15.00;99.90;;;;;;4987701;28;20183;-72
2022/05/24 04:21:40;;;;;;;2.13;2.03;;;15.00;99.90;;;;;;4993712;28;20688;-73
2022/05/24 04:24:06;;;;;;;4.63;2.47;;;15.00;99.90;;;;;;4993232;28;20654;-72
2022/05/24 04:26:32;;;;;;;4.03;1.90;;;15.10;99.90;;;;;;4993805;28;20178;-73
2022/05/24 04:28:57;;;;;;;4.50;2.50;;;15.10;99.90;;;;;;4993146;28;20492;-72
2022/05/24 04:31:23;;;;;;;2.40;2.30;;;15.20;99.90;;;;;;4993134;28;20221;-73
2022/05/24 04:33:49;;;;;;;2.03;1.73;;;15.20;99.90;;;;;;4979045;28;20184;-73
2022/05/24 04:36:15;;;;;;;3.63;2.53;;;15.10;99.90;;;;;;4974054;28;20172;-73
2022/05/24 04:38:41;;;;;;;2.10;1.43;;;15.10;99.90;;;;;;4973880;28;20176;-73
2022/05/24 04:43:51;;;;;;;2.17;2.07;;;15.30;99.90;;;;;;4987080;28;20472;-73
2022/05/24 04:46:17;;;;;;;2.30;2.20;;;15.40;99.90;;;;;;4993301;28;20895;-73
2022/05/24 04:48:42;;;;;;;3.20;2.90;;;15.40;99.90;;;;;;4993449;28;20605;-73
2022/05/24 04:51:08;;;;;;;2.60;2.40;;;15.50;99.90;;;;;;4992524;28;20646;-73
2022/05/24 04:53:33;;;;;;;2.00;1.90;;;15.50;99.90;;;;;;4981479;28;20266;-73
2022/05/24 04:56:03;;;;;;;2.90;2.27;;;15.40;99.90;;;;;;4975502;28;20226;-74
2022/05/24 04:58:38;;;;;;;2.00;1.90;;;15.50;99.90;;;;;;4976553;28;20176;-73
2022/05/24 05:01:04;;;;;;;2.40;2.13;;;15.50;99.90;;;;;;4975457;28;20469;-73
2022/05/24 05:03:29;;;;;;;2.23;1.37;;;15.60;99.90;;;;;;4987157;28;20426;-73
2022/05/24 05:05:56;;;;;;;1.40;1.30;;;15.60;99.90;;;;;;4995048;28;20163;-74
2022/05/24 05:08:22;;;;;;;1.17;1.17;;;15.60;99.90;;;;;;4994903;28;20275;-73
2022/05/24 05:10:48;;;;;;;1.40;1.30;;;15.60;99.90;;;;;;4994325;28;20414;-73
2022/05/24 05:13:15;;;;;;;1.37;1.10;;;15.70;99.90;;;;;;4984051;28;20990;-73
2022/05/24 05:15:41;;;;;;;1.50;1.07;;;15.80;99.90;;;;;;4972584;28;20190;-73
2022/05/24 05:18:13;;;;;;;1.67;1.27;;;15.90;99.90;;;;;;4993554;28;20493;-73
2022/05/24 05:20:45;;;;;;;1.00;1.00;;;16.00;99.90;;;;;;4994076;28;20176;-73
2022/05/24 05:23:14;;;;;;;1.37;0.80;;;16.10;99.90;;;;;;4982051;28;20848;-72
2022/05/24 05:25:41;;;;;;;1.57;1.47;;;16.10;99.90;;;;;;4984024;28;20427;-69
2022/05/24 05:28:07;;;;;;;0.90;0.90;;;16.00;99.90;;;;;;4979246;28;20500;-70
2022/05/24 05:33:17;;;;;;;1.10;1.00;;;16.10;99.90;;;;;;4988893;28;21032;-71
2022/05/24 05:35:43;;;;;;;2.67;0.97;;;16.10;99.90;;;;;;4990296;28;20418;-70
2022/05/24 05:38:09;;;;;;;0.77;0.77;;;16.20;99.90;;;;;;4990477;28;20250;-71
2022/05/24 05:40:35;;;;;;;1.40;1.30;;;16.30;99.90;;;;;;4990992;28;20899;-69
2022/05/24 05:43:00;;;;;;;1.20;1.10;;;16.50;99.90;;;;;;4991545;28;20184;-71
2022/05/24 05:45:26;;;;;;;1.73;1.23;;;16.70;99.90;;;;;;4992468;28;20176;-72
2022/05/24 05:47:53;;;;;;;2.30;1.00;;;16.70;99.90;;;;;;4992332;28;20233;-70
2022/05/24 05:50:20;;;;;;;0.80;0.80;;;16.80;99.90;;;;;;4992200;28;20179;-71
2022/05/24 05:52:46;;;;;;;3.83;1.83;;;16.80;99.90;;;;;;4991957;28;20488;-70
2022/05/24 05:55:12;;;;;;;2.07;0.90;;;16.90;99.90;;;;;;4992022;28;20454;-71
2022/05/24 05:57:38;;;;;;;2.67;1.43;;;16.90;99.90;;;;;;4992312;28;20419;-72
2022/05/24 06:00:05;;;;;;;4.17;1.67;;;16.90;99.90;;;;;;4992321;28;20406;-72
2022/05/24 06:02:31;;;;;;;1.30;1.20;;;16.90;99.90;;;;;;4991894;28;20443;-72
2022/05/24 06:04:56;;;;;;;3.57;1.40;;;16.90;99.90;;;;;;4992007;28;20411;-72
2022/05/24 06:07:23;;;;;;;1.70;1.60;;;17.00;99.90;;;;;;4992052;28;20229;-71
2022/05/24 06:09:49;;;;;;;1.50;1.40;;;17.10;99.90;;;;;;4991050;28;20189;-72
2022/05/24 06:12:15;;;;;;;9.30;1.17;;;17.30;99.90;;;;;;4994323;28;20474;-72
2022/05/24 06:14:40;;;;;;;5.80;1.30;;;17.50;99.90;;;;;;4996319;28;20410;-72
2022/05/24 06:17:06;;;;;;;1.60;1.50;;;17.60;99.90;;;;;;4995989;28;20171;-72
2022/05/24 06:19:31;;;;;;;1.20;1.10;;;17.70;99.90;;;;;;4996387;28;20249;-72
2022/05/24 06:21:57;;;;;;;2.73;1.40;;;17.70;99.90;;;;;;4995716;28;20245;-73
2022/05/24 06:24:22;;;;;;;3.83;1.20;;;17.80;99.90;;;;;;4997143;28;20179;-72
2022/05/24 06:26:50;;;;;;;1.20;1.00;;;17.90;99.90;;;;;;4996993;28;20183;-72
2022/05/24 06:29:16;;;;;;;2.07;1.23;;;17.80;99.90;;;;;;4996117;28;20186;-72
2022/05/24 06:31:44;;;;;;;1.00;1.00;;;17.80;99.90;;;;;;4995799;28;20556;-72
2022/05/24 06:34:11;;;;;;;5.70;1.00;;;17.80;99.90;;;;;;4995910;28;20410;-72
2022/05/24 06:36:36;;;;;;;4.43;1.33;;;17.80;99.90;;;;;;4995871;28;20433;-72
2022/05/24 06:39:02;;;;;;;2.80;1.10;;;17.70;99.90;;;;;;4995609;28;20414;-71
2022/05/24 06:41:28;;;;;;;3.00;1.17;;;17.70;99.90;;;;;;4995857;28;20191;-72
2022/05/24 06:43:54;;;;;;;5.13;0.97;;;17.60;99.90;;;;;;4995777;28;20804;-73
2022/05/24 06:46:19;;;;;;;1.43;1.10;;;17.70;99.90;;;;;;4995795;28;20175;-71
2022/05/24 06:48:45;;;;;;;4.03;1.40;;;17.70;99.90;;;;;;4995569;28;20541;-71
2022/05/24 06:51:16;;;;;;;2.37;1.30;;;17.70;99.90;;;;;;4993933;28;20203;-72
2022/05/24 06:53:44;;;;;;;2.13;1.37;;;17.70;99.90;;;;;;4995495;28;20171;-72
2022/05/24 06:56:10;;;;;;;3.23;1.53;;;17.60;99.90;;;;;;4995839;28;20407;-71
2022/05/24 06:58:37;;;;;;;3.13;1.17;;;17.50;99.90;;;;;;4995989;28;20411;-72
2022/05/24 07:03:49;;;;;;;1.40;0.70;;;17.40;99.90;;;;;;4996213;28;20417;-73
2022/05/24 07:06:15;;;;;;;2.40;0.93;;;17.10;99.90;;;;;;4995227;28;20926;-72
2022/05/24 07:08:45;;;;;;;2.73;0.70;;;16.10;99.90;;;;;;4995066;28;20214;-72
2022/05/24 07:11:12;;;;;;;5.90;0.80;;;15.10;99.90;;;;;;4994758;28;20846;-72
2022/05/24 07:13:39;;;;;;;1.83;0.73;;;14.50;99.90;;;;;;4995066;28;20417;-72
2022/05/24 07:16:06;;;;;;;1.17;0.50;;;14.10;99.90;;;;;;4994949;28;20418;-72
2022/05/24 07:18:31;;;;;;;8.63;0.73;;;14.00;99.90;;;;;;4995101;28;20403;-72
2022/05/24 07:20:57;;;;;;;2.43;0.57;;;13.80;99.90;;;;;;4994511;28;20484;-73
2022/05/24 07:23:26;;;;;;;1.47;0.70;;;13.80;99.90;;;;;;4994711;28;20176;-72
2022/05/24 07:25:53;;;;;;;0.90;0.70;;;13.70;99.90;;;;;;4994945;28;20561;-72
2022/05/24 07:28:19;;;;;;;0.80;0.67;;;13.70;99.90;;;;;;4994681;28;20826;-73
2022/05/24 07:30:47;;;;;;;1.77;0.73;;;13.70;99.90;;;;;;4994297;28;20453;-72
2022/05/24 07:33:13;;;;;;;1.33;0.70;;;13.70;99.90;;;;;;4994557;28;20511;-71
2022/05/24 07:35:40;;;;;;;1.43;0.50;;;13.80;99.90;;;;;;4994545;28;20928;-71
2022/05/24 07:38:07;;;;;;;0.90;0.70;;;13.80;99.90;;;;;;4994286;28;20184;-72
2022/05/24 07:46:06;;;;;;;2.20;0.70;;;14.10;99.90;;;;;;4994610;28;20434;-72
2022/05/24 07:48:32;;;;;;;0.90;0.60;;;14.20;99.90;;;;;;4994754;28;20517;-71
2022/05/24 07:50:57;;;;;;;2.30;0.60;;;14.30;99.90;;;;;;4994230;28;20545;-71
2022/05/24 07:53:23;;;;;;;1.23;0.87;;;14.40;99.90;;;;;;4994259;28;20207;-71
2022/05/24 07:55:49;;;;;;;1.97;0.60;;;14.40;99.90;;;;;;4994281;28;20198;-71
2022/05/24 07:58:15;;;;;;;1.13;0.60;;;14.50;99.90;;;;;;4994242;28;20438;-71
2022/05/24 08:00:40;;;;;;;3.27;0.73;;;14.60;99.90;;;;;;4994257;28;20180;-70
2022/05/24 08:03:07;;;;;;;3.30;0.70;;;14.80;99.90;;;;;;4994015;28;20179;-71
2022/05/24 08:05:34;;;;;;;1.63;0.50;;;15.00;99.90;;;;;;4994538;28;20422;-71
2022/05/24 08:08:00;;;;;;;1.63;0.50;;;15.10;99.90;;;;;;4994075;28;21075;-71
2022/05/24 08:10:30;;;;;;;0.60;0.50;;;15.30;99.90;;;;;;4994316;28;20908;-72
2022/05/24 08:12:58;;;;;;;0.57;0.57;;;15.50;99.90;;;;;;4993821;28;20466;-72
2022/05/24 08:15:25;;;;;;;4.23;0.80;;;15.60;99.90;;;;;;4994194;28;20409;-73
2022/05/24 08:17:51;;;;;;;2.90;0.60;;;15.80;99.90;;;;;;4993918;28;20411;-73
2022/05/24 08:20:17;;;;;;;0.90;0.60;;;16.00;99.90;;;;;;4993777;28;20469;-73
2022/05/24 08:22:43;;;;;;;0.70;0.60;;;16.10;99.90;;;;;;4993358;28;20441;-72
2022/05/24 08:25:10;;;;;;;1.40;0.60;;;16.00;99.90;;;;;;4993778;28;20430;-73
2022/05/24 08:27:36;;;;;;;0.57;0.50;;;16.10;99.90;;;;;;4993665;28;20179;-74
2022/05/24 08:30:01;;;;;;;0.50;0.50;;;16.00;99.90;;;;;;4993619;28;20414;-72
2022/05/24 08:32:27;;;;;;;5.87;0.60;;;16.00;99.90;;;;;;4993329;28;20221;-73
2022/05/24 08:34:53;;;;;;;0.80;0.50;;;16.00;99.90;;;;;;4993189;28;20164;-74
2022/05/24 08:37:19;;;;;;;0.57;0.50;;;16.10;99.90;;;;;;4993697;28;20505;-73
2022/05/24 08:39:44;;;;;;;1.40;0.97;;;16.10;99.90;;;;;;4993625;28;20183;-73
2022/05/24 08:42:21;;;;;;;0.60;0.40;;;16.00;99.90;;;;;;4992997;28;20202;-73
2022/05/24 08:50:25;;;;;;;2.30;0.50;;;16.10;99.90;;;;;;4993485;28;20430;-70
2022/05/24 08:52:56;;;;;;;1.53;1.00;;;16.10;99.90;;;;;;4993201;28;20520;-72
2022/05/24 08:55:22;;;;;;;0.50;0.50;;;16.30;99.90;;;;;;4993209;28;20406;-73
2022/05/24 08:57:52;;;;;;;0.87;0.50;;;16.40;99.90;;;;;;4992970;28;20418;-73
2022/05/24 09:00:28;;;;;;;1.10;0.60;;;16.60;99.90;;;;;;4993006;28;20179;-73
2022/05/24 09:02:55;;;;;;;1.07;0.50;;;16.90;99.90;;;;;;4993002;28;20437;-73
2022/05/24 09:05:30;;;;;;;0.60;0.40;;;17.10;99.90;;;;;;4992665;28;20421;-73
2022/05/24 09:08:16;;;;;;;1.17;0.50;;;17.30;99.90;;;;;;4993067;28;20429;-73
2022/05/24 09:11:15;;;;;;;0.50;0.40;;;17.60;99.90;;;;;;4992406;28;20430;-72
2022/05/24 09:14:17;;;;;;;2.10;0.67;;;17.80;99.90;;;;;;4992458;28;20427;-72
2022/05/24 09:16:56;;;;;;;0.50;0.50;;;17.90;99.90;;;;;;4993038;28;20546;-71
2022/05/24 09:19:35;;;;;;;0.50;0.50;;;18.00;99.90;;;;;;4993101;28;20413;-73
2022/05/24 09:22:06;;;;;;;0.60;0.47;;;18.30;99.90;;;;;;4992405;28;20466;-73
2022/05/24 09:24:56;;;;;;;0.83;0.50;;;18.70;99.90;;;;;;4992906;28;20445;-73
2022/05/24 09:27:23;;;;;;;0.60;0.40;;;18.90;99.90;;;;;;4992839;28;20840;-72
2022/05/24 09:30:13;;;;;;;0.70;0.50;;;19.00;99.90;;;;;;4992761;28;20425;-72
2022/05/24 09:32:42;;;;;;;0.60;0.43;;;19.10;99.90;;;;;;4992189;28;20481;-73
2022/05/24 09:35:18;;;;;;;0.70;0.60;;;19.30;99.90;;;;;;4993528;28;20411;-73
2022/05/24 09:38:02;;;;;;;1.50;0.50;;;19.30;99.90;;;;;;4992912;28;20410;-73
2022/05/24 09:40:27;;;;;;;0.60;0.47;;;19.20;99.90;;;;;;4992620;28;20410;-72
2022/05/24 09:42:53;;;;;;;1.53;0.40;;;18.60;99.90;;;;;;4992140;28;20493;-73
2022/05/24 09:45:26;;;;;;;1.43;0.50;;;18.50;99.90;;;;;;4991663;28;20195;-72
2022/05/24 09:47:56;;;;;;;0.83;0.40;;;19.10;99.90;;;;;;4992402;28;20179;-73
2022/05/24 09:50:31;;;;;;;2.03;0.40;;;20.20;99.90;;;;;;4992282;28;20986;-74
2022/05/24 09:53:02;;;;;;;0.70;0.40;;;21.30;99.90;;;;;;4992270;28;21097;-73
2022/05/24 09:55:47;;;;;;;0.40;0.40;;;21.70;99.90;;;;;;4992325;28;20419;-74
2022/05/24 09:58:27;;;;;;;3.53;0.40;;;21.90;99.90;;;;;;4992043;28;20425;-73
2022/05/24 10:01:07;;;;;;;1.10;0.50;;;21.70;99.90;;;;;;4992005;28;20977;-73
2022/05/24 10:03:32;;;;;;;1.17;0.50;;;22.00;99.90;;;;;;4991987;28;20423;-73
2022/05/24 10:06:24;;;;;;;0.50;0.40;;;22.40;99.90;;;;;;4992231;28;20783;-73
2022/05/24 10:08:54;;;;;;;0.60;0.50;;;22.70;99.90;;;;;;4992435;28;20198;-73
2022/05/24 10:11:45;;;;;;;1.20;0.50;;;23.20;99.90;;;;;;4991899;28;20437;-76
2022/05/24 10:14:32;;;;;;;0.90;0.50;;;23.90;99.90;;;;;;4992136;28;20399;-73
2022/05/24 10:17:03;;;;;;;0.43;0.43;;;23.90;99.90;;;;;;4992167;28;20406;-74
2022/05/24 10:19:55;;;;;;;2.30;0.70;;;23.90;99.90;;;;;;4992175;28;20410;-73
2022/05/24 10:22:29;;;;;;;1.23;0.40;;;23.80;99.90;;;;;;4991812;28;20433;-73
2022/05/24 10:25:13;;;;;;;0.60;0.40;;;23.90;99.90;;;;;;4992160;28;20497;-73
2022/05/24 10:27:50;;;;;;;1.97;0.50;;;24.10;99.90;;;;;;4992019;28;20414;-74
2022/05/24 10:30:24;;;;;;;2.90;0.63;;;24.00;99.90;;;;;;4991748;28;20979;-73
2022/05/24 10:39:29;;;;;;;0.60;0.50;;;25.00;99.90;;;;;;4991894;28;20452;-72
2022/05/24 10:42:03;;;;;;;0.50;0.50;;;24.90;99.90;;;;;;4991793;28;20488;-75
2022/05/24 10:44:55;;;;;;;0.50;0.40;;;24.90;99.90;;;;;;4992001;28;20529;-76
2022/05/24 10:47:43;;;;;;;2.00;0.50;;;24.80;99.90;;;;;;4991874;28;20422;-75
2022/05/24 10:50:16;;;;;;;2.20;0.40;;;24.20;99.90;;;;;;4991733;28;21022;-75
2022/05/24 10:53:08;;;;;;;3.73;0.50;;;23.40;99.90;;;;;;4991533;28;20462;-74
2022/05/24 10:56:00;;;;;;;1.70;0.50;;;23.40;99.90;;;;;;4989464;28;20423;-74
2022/05/24 10:58:31;;;;;;;1.50;0.40;;;23.90;99.90;;;;;;4994708;28;20761;-74
2022/05/24 11:01:08;;;;;;;1.93;0.60;;;23.90;99.90;;;;;;4995337;28;20438;-75
2022/05/24 11:03:46;;;;;;;0.80;0.47;;;23.90;99.90;;;;;;4994448;28;20911;-74
2022/05/24 11:06:32;;;;;;;0.83;0.50;;;23.90;99.90;;;;;;4995364;28;20460;-73
2022/05/24 11:09:05;;;;;;;0.83;0.50;;;24.00;99.90;;;;;;4995210;28;20422;-73
2022/05/24 11:11:49;;;;;;;0.90;0.50;;;23.50;99.90;;;;;;4994874;28;20955;-73
2022/05/24 11:14:22;;;;;;;0.83;0.50;;;23.70;99.90;;;;;;4987752;28;20438;-74
2022/05/24 11:16:50;;;;;;;0.70;0.50;;;23.90;99.90;;;;;;4988596;28;20410;-75
2022/05/24 11:19:27;;;;;;;1.47;0.50;;;23.70;99.90;;;;;;4984255;28;20422;-74
2022/05/24 11:22:08;;;;;;;1.60;0.80;;;22.60;99.90;;;;;;4983158;28;20438;-72
2022/05/24 11:24:59;;;;;;;0.50;0.50;;;22.30;99.90;;;;;;4994144;28;20509;-73
2022/05/24 11:27:37;;;;;;;1.37;0.50;;;22.00;99.90;;;;;;4994561;28;20406;-73
2022/05/24 11:30:14;;;;;;;1.13;0.60;;;22.30;99.90;;;;;;4994654;28;20414;-72
2022/05/24 11:32:50;;;;;;;0.50;0.40;;;22.30;99.90;;;;;;4994106;28;20555;-73
2022/05/24 11:35:18;;;;;;;1.47;0.40;;;22.30;99.90;;;;;;4990927;28;20850;-73
2022/05/24 11:37:46;;;;;;;1.13;0.50;;;22.00;99.90;;;;;;4975098;28;20490;-72
2022/05/24 11:40:33;;;;;;;2.53;0.50;;;21.70;99.90;;;;;;4975125;28;20458;-74
2022/05/24 11:43:05;;;;;;;1.07;0.70;;;21.20;99.90;;;;;;4974821;28;20431;-73
2022/05/24 11:45:31;;;;;;;2.43;0.50;;;21.20;99.90;;;;;;4975051;28;20924;-73
2022/05/24 11:48:06;;;;;;;0.70;0.70;;;21.00;99.90;;;;;;4974922;28;20416;-72
2022/05/24 11:50:31;;;;;;;1.90;0.60;;;20.80;99.90;;;;;;4974988;28;20458;-73
2022/05/24 11:53:15;;;;;;;1.47;0.50;;;20.50;99.90;;;;;;4974671;28;20470;-72
2022/05/24 11:55:56;;;;;;;1.93;0.70;;;20.40;99.90;;;;;;4975020;28;20168;-73
2022/05/24 11:58:22;;;;;;;0.90;0.50;;;20.20;99.90;;;;;;4974685;28;20419;-74
2022/05/24 12:01:01;;;;;;;2.07;0.80;;;20.10;99.90;;;;;;4974520;28;20418;-71
2022/05/24 12:09:21;;;;;;;1.83;0.60;;;20.30;99.90;;;;;;4974418;28;20419;-74
2022/05/24 12:11:48;;;;;;;1.20;0.60;;;20.60;99.90;;;;;;4974239;28;20469;-73
2022/05/24 12:14:19;;;;;;;1.03;0.57;;;20.70;99.90;;;;;;4974373;28;20788;-73
2022/05/24 12:17:09;;;;;;;1.33;0.50;;;20.40;99.90;;;;;;4974586;28;20411;-73
2022/05/24 12:19:35;;;;;;;0.70;0.50;;;20.30;99.90;;;;;;4971675;28;20430;-75
2022/05/24 12:22:11;;;;;;;1.77;0.50;;;20.50;99.90;;;;;;4973746;28;20431;-71
2022/05/24 12:24:40;;;;;;;3.73;0.53;;;20.70;99.90;;;;;;4974290;28;20262;-71
2022/05/24 12:27:20;;;;;;;0.70;0.70;;;21.00;99.90;;;;;;4974020;28;20470;-71
2022/05/24 12:30:14;;;;;;;0.70;0.50;;;21.30;99.90;;;;;;4974260;28;20422;-71
2022/05/24 12:32:41;;;;;;;2.60;0.70;;;21.60;99.90;;;;;;4982156;28;20853;-71
2022/05/24 12:35:09;;;;;;;0.83;0.70;;;21.80;99.90;;;;;;4992202;28;20454;-71
2022/05/24 12:37:35;;;;;;;1.60;0.50;;;21.80;99.90;;;;;;4992240;28;20474;-71
2022/05/24 12:40:18;;;;;;;0.83;0.70;;;21.60;99.90;;;;;;4991969;28;20454;-70
2022/05/24 12:42:51;;;;;;;1.63;0.50;;;21.60;99.90;;;;;;4991962;28;20600;-70
2022/05/24 12:45:32;;;;;;;0.50;0.40;;;21.90;99.90;;;;;;4991846;28;21006;-72
2022/05/24 12:47:59;;;;;;;3.37;0.60;;;22.00;99.90;;;;;;4992119;28;20449;-73
2022/05/24 12:50:27;;;;;;;0.90;0.60;;;22.10;99.90;;;;;;4992176;28;20449;-69
2022/05/24 12:53:04;;;;;;;0.93;0.50;;;22.10;99.90;;;;;;4991890;28;20470;-72
2022/05/24 12:58:30;;;;;;;1.67;0.70;;;21.60;99.90;;;;;;4991702;28;20438;-72
2022/05/24 13:01:25;;;;;;;1.23;0.50;;;21.50;99.90;;;;;;4992373;28;20442;-72
2022/05/24 13:04:11;;;;;;;1.83;0.40;;;21.10;99.90;;;;;;4992536;28;20926;-71
2022/05/24 13:06:40;;;;;;;3.03;0.60;;;20.90;99.90;;;;;;4992976;28;20418;-72
2022/05/24 13:09:23;;;;;;;2.17;0.50;;;20.70;99.90;;;;;;4992349;28;20429;-72
2022/05/24 13:12:07;;;;;;;3.17;0.67;;;20.50;99.90;;;;;;4992479;28;20986;-72
2022/05/24 13:15:01;;;;;;;2.30;0.60;;;20.10;99.90;;;;;;4992668;28;20780;-72
2022/05/24 13:17:29;;;;;;;0.90;0.57;;;19.90;99.90;;;;;;4992843;28;20740;-73
2022/05/24 13:20:06;;;;;;;4.80;0.70;;;19.80;99.90;;;;;;4992342;28;20411;-72
2022/05/24 13:22:59;;;;;;;1.73;0.50;;;19.90;99.90;;;;;;4992342;28;20976;-71
2022/05/24 13:25:28;;;;;;;0.70;0.53;;;20.00;99.90;;;;;;4992406;28;20458;-71
2022/05/24 13:27:59;;;;;;;1.07;0.60;;;20.20;99.90;;;;;;4992508;28;20516;-72
2022/05/24 13:33:46;;;;;;;1.83;0.50;;;20.30;99.90;;;;;;4969261;28;20575;-71
2022/05/24 13:36:31;;;;;;;0.80;0.50;;;20.30;99.90;;;;;;4992777;28;20849;-72
2022/05/24 13:39:02;;;;;;;0.50;0.50;;;20.30;99.90;;;;;;4992342;28;20780;-73
2022/05/24 13:41:31;;;;;;;0.70;0.60;;;20.60;99.90;;;;;;4992221;28;20521;-71
2022/05/24 13:44:36;;;;;;;1.37;0.60;;;20.60;99.90;;;;;;4992510;28;20471;-71
2022/05/24 13:47:03;;;;;;;6.10;0.70;;;20.50;99.90;;;;;;4991390;28;20433;-71
2022/05/24 13:49:35;;;;;;;2.27;0.50;;;20.40;99.90;;;;;;4992255;28;20437;-75
2022/05/24 13:52:20;;;;;;;0.57;0.53;;;20.50;99.90;;;;;;4992110;28;20458;-74
2022/05/24 13:54:49;;;;;;;1.13;0.50;;;20.70;99.90;;;;;;4992601;28;20538;-72
2022/05/24 13:57:27;;;;;;;0.60;0.57;;;20.90;99.90;;;;;;4992426;28;20409;-74
2022/05/24 14:00:10;;;;;;;1.67;0.63;;;21.20;99.90;;;;;;4992176;28;20413;-74
2022/05/24 14:02:36;;;;;;;1.37;0.70;;;21.20;99.90;;;;;;4991966;28;20481;-74
2022/05/24 14:05:03;;;;;;;0.97;0.50;;;20.90;99.90;;;;;;4991461;28;20903;-73
2022/05/24 14:07:31;;;;;;;0.90;0.53;;;20.70;99.90;;;;;;4990763;28;20199;-74
2022/05/24 14:09:57;;;;;;;2.70;0.50;;;20.50;99.90;;;;;;4991922;28;20460;-74
2022/05/24 14:12:23;;;;;;;1.70;0.50;;;20.40;99.90;;;;;;4991406;28;20484;-74
2022/05/24 14:14:49;;;;;;;0.70;0.60;;;20.40;99.90;;;;;;4991877;28;20414;-73
2022/05/24 14:17:14;;;;;;;7.43;0.83;;;20.50;99.90;;;;;;4991683;28;20251;-73
2022/05/24 14:19:41;;;;;;;0.60;0.60;;;20.50;99.90;;;;;;4991865;28;20173;-73
2022/05/24 14:22:06;;;;;;;3.93;0.60;;;20.60;99.90;;;;;;4991380;28;20195;-73
2022/05/24 14:24:40;;;;;;;0.50;0.50;;;20.60;99.90;;;;;;4991833;28;20489;-74
2022/05/24 14:27:07;;;;;;;3.07;0.60;;;20.50;99.90;;;;;;4990363;28;20506;-73
2022/05/24 14:29:32;;;;;;;2.20;0.70;;;20.50;99.90;;;;;;4991878;28;20438;-74
2022/05/24 14:31:58;;;;;;;1.50;0.80;;;20.70;99.90;;;;;;4991712;28;20903;-74
2022/05/24 14:34:25;;;;;;;0.70;0.50;;;20.80;99.90;;;;;;4995650;28;20171;-75
2022/05/24 14:36:52;;;;;;;1.33;0.50;;;21.00;99.90;;;;;;4995773;28;20469;-75
2022/05/24 14:39:18;;;;;;;3.33;0.83;;;21.10;99.90;;;;;;4995428;28;20446;-74
2022/05/24 14:41:44;;;;;;;0.60;0.50;;;21.00;99.90;;;;;;4995414;28;20848;-74
2022/05/24 14:44:17;;;;;;;0.40;0.40;;;20.70;99.90;;;;;;4994885;28;20469;-74
2022/05/24 14:46:43;;;;;;;2.60;0.60;;;20.60;99.90;;;;;;4995631;28;20417;-74
2022/05/24 14:49:09;;;;;;;0.87;0.60;;;20.50;99.90;;;;;;4995080;28;20476;-74
2022/05/24 14:51:42;;;;;;;1.27;0.60;;;20.40;99.90;;;;;;4995071;28;20198;-73
2022/05/24 14:54:08;;;;;;;1.93;0.73;;;20.40;99.90;;;;;;4995111;28;20418;-74
2022/05/24 14:56:35;;;;;;;4.30;1.27;;;20.50;99.90;;;;;;4995343;28;20506;-74
2022/05/24 14:59:01;;;;;;;3.80;0.87;;;20.40;99.90;;;;;;4995069;28;20171;-72
2022/05/24 15:01:27;;;;;;;5.67;0.60;;;20.30;99.90;;;;;;4994936;28;20990;-74
2022/05/24 15:03:52;;;;;;;0.97;0.50;;;20.30;99.90;;;;;;4994933;28;20182;-74
2022/05/24 15:06:18;;;;;;;2.17;0.60;;;20.30;99.90;;;;;;4995069;28;20233;-74
2022/05/24 15:17:34;;;;;;;0.80;0.57;;;20.00;99.90;;;;;;4991820;28;20513;-73
2022/05/24 15:20:09;;;;;;;3.13;0.60;;;19.90;99.90;;;;;;4994562;28;20453;-73
2022/05/24 15:22:38;;;;;;;0.80;0.50;;;19.90;99.90;;;;;;4994648;28;20815;-73
2022/05/24 15:25:08;;;;;;;0.60;0.50;;;19.90;99.90;;;;;;4994318;28;20416;-73
2022/05/24 15:27:34;;;;;;;1.07;0.53;;;20.00;99.90;;;;;;4994685;28;20415;-74
2022/05/24 15:30:02;;;;;;;2.00;0.60;;;20.00;99.90;;;;;;4994860;28;20617;-73
2022/05/24 15:32:28;;;;;;;1.60;0.60;;;20.00;99.90;;;;;;4994216;28;20210;-73
2022/05/24 15:34:54;;;;;;;3.80;0.73;;;20.00;99.90;;;;;;4994588;28;20411;-72